Weather reports worldwide

Advertisment
Elgoibar, Spain (8036): temperature & dewpoint: 10.09.2019 05:00:00 - 16.09.2019 05:00:00 (CEST)Elgoibar, Spain (8036): wind speed & gusts: 10.09.2019 05:00:00 - 16.09.2019 05:00:00 (CEST)Elgoibar, Spain (8036): wind direction: 10.09.2019 05:00:00 - 16.09.2019 05:00:00 (CEST)Elgoibar, Spain (8036): reduced air pressure: 10.09.2019 05:00:00 - 16.09.2019 05:00:00 (CEST)Elgoibar, Spain (8036): precipitation: 10.09.2019 05:00:00 - 16.09.2019 05:00:00 (CEST)
Date & Time tt [°C] td [°C] ff [km/h] ff [kn] fx [km/h] fx [kn] dd ppp [hPa] rr [mm]
16.09.2019 05:00:00 - - - - - - - - -
16.09.2019 04:00:00 17,1 16,1 0 0 9 5 N 1020,1 0,4
16.09.2019 03:00:00 17,2 16,2 3 2 12 6 WNW 1020,9 0,0
16.09.2019 02:00:00 17,2 16,2 4 2 13 7 SSW 1020,7 -
16.09.2019 01:00:00 17,2 16,0 1 1 15 8 S 1020,4 0,5
16.09.2019 00:00:00 17,3 16,0 6 4 18 10 WSW 1020,8 0,7
15.09.2019 23:00:00 17,9 16,6 0 0 20 11 N 1021,9 0,3
15.09.2019 22:00:00 17,0 15,7 0 0 13 7 N 1021,5 0,0
15.09.2019 21:00:00 17,0 15,2 0 0 16 9 N 1020,5 0,0
15.09.2019 20:00:00 17,8 16,0 10 5 17 9 SW 1020,0 -
15.09.2019 19:00:00 17,9 15,9 7 4 35 19 SW 1020,0 0,0
15.09.2019 18:00:00 17,9 15,2 6 3 34 18 SW 1020,2 3,3
15.09.2019 17:00:00 20,9 15,3 4 2 26 14 SSW 1021,8 0,0
15.09.2019 16:00:00 21,6 13,3 15 8 45 25 SSW 1022,4 0,9
15.09.2019 15:00:00 24,9 14,3 13 7 23 13 N 1020,2 0,0
15.09.2019 14:00:00 27,6 14,6 5 3 9 5 N 1020,2 -
15.09.2019 13:00:00 26,2 15,3 1 1 6 3 N 1020,9 0,0
15.09.2019 12:00:00 23,2 16,7 1 1 8 5 SE 1021,7 0,0
15.09.2019 11:00:00 19,7 17,3 1 1 9 5 E 1022,5 0,0
15.09.2019 10:00:00 17,0 15,7 2 1 14 8 SE 1022,8 0,0
15.09.2019 09:00:00 16,2 15,1 0 0 8 5 N 1022,4 0,0
15.09.2019 08:00:00 15,4 14,2 0 0 5 3 N 1022,4 -
15.09.2019 07:00:00 15,7 14,6 0 0 13 7 N 1022,1 0,0
15.09.2019 06:00:00 15,5 14,3 1 1 10 5 SW 1021,9 0,0
15.09.2019 05:00:00 15,7 14,4 0 0 0 0 N 1022,4 0,0
15.09.2019 04:00:00 16,2 14,9 0 0 0 0 N 1022,6 0,0
15.09.2019 03:00:00 16,6 15,3 0 0 0 0 N 1022,8 0,0
15.09.2019 02:00:00 16,8 15,3 0 0 0 0 N 1023,1 -
15.09.2019 01:00:00 16,8 15,0 0 0 0 0 N 1023,2 0,0
15.09.2019 00:00:00 17,2 15,0 0 0 7 4 N 1023,2 0,0
14.09.2019 23:00:00 17,9 15,3 0 0 0 0 N 1023,1 0,0
14.09.2019 22:00:00 18,8 15,3 0 0 0 0 N 1023,1 0,0
14.09.2019 21:00:00 19,4 15,1 0 0 5 3 N 1023,2 0,0
14.09.2019 20:00:00 21,3 15,6 2 1 13 7 ENE 1022,7 -
14.09.2019 19:00:00 22,6 14,7 5 3 14 7 N 1022,3 0,0
14.09.2019 18:00:00 23,4 13,9 11 6 19 11 NNW 1022,3 0,0
14.09.2019 17:00:00 24,8 13,9 9 5 20 11 NNW 1022,4 0,0
14.09.2019 16:00:00 25,8 14,6 10 5 22 12 N 1022,3 0,0
14.09.2019 15:00:00 26,1 16,0 9 5 24 13 NNW 1022,7 0,0
14.09.2019 14:00:00 26,4 15,2 9 5 18 10 N 1023,3 -
14.09.2019 13:00:00 26,6 15,3 2 1 7 4 SW 1023,9 0,0
14.09.2019 12:00:00 23,9 16,9 0 0 0 0 ENE 1024,7 0,0
14.09.2019 11:00:00 21,0 16,6 1 0 10 6 NNW 1025,4 0,0
14.09.2019 10:00:00 18,2 16,9 0 0 0 0 N 1026,1 0,0
14.09.2019 09:00:00 16,1 15,2 0 0 0 0 N 1025,8 0,0
14.09.2019 08:00:00 15,5 14,5 0 0 11 6 SE 1025,3 -
14.09.2019 07:00:00 15,8 14,8 0 0 7 4 N 1025,0 0,0
14.09.2019 06:00:00 15,7 14,7 0 0 7 4 N 1025,5 0,0
14.09.2019 05:00:00 15,5 14,5 0 0 0 0 N 1025,7 0,0
14.09.2019 04:00:00 15,2 14,2 1 1 6 3 ENE 1025,9 0,0
14.09.2019 03:00:00 14,9 13,8 0 0 0 0 N 1026,6 0,0
14.09.2019 02:00:00 14,7 13,5 0 0 6 4 N 1027,3 -
14.09.2019 01:00:00 15,3 14,0 0 0 11 6 N 1027,6 0,0
14.09.2019 00:00:00 15,5 13,9 0 0 0 0 N 1027,7 0,0
13.09.2019 23:00:00 15,9 13,8 0 0 0 0 SSW 1027,7 0,0
13.09.2019 22:00:00 16,6 13,7 0 0 4 2 N 1027,4 0,0
13.09.2019 21:00:00 17,7 13,9 0 0 5 3 N 1027,0 0,0
13.09.2019 20:00:00 19,4 14,2 3 2 11 6 N 1026,8 -
13.09.2019 19:00:00 20,3 14,2 5 3 18 10 N 1026,5 0,0
13.09.2019 18:00:00 20,8 14,4 10 5 19 11 N 1026,6 0,0
13.09.2019 17:00:00 21,3 14,4 10 5 21 11 N 1026,6 0,0
13.09.2019 16:00:00 21,9 14,8 11 6 21 12 N 1026,7 0,0
13.09.2019 15:00:00 22,6 15,2 9 5 20 11 N 1027,0 0,0
13.09.2019 14:00:00 22,2 15,1 10 5 19 10 N 1027,1 -
13.09.2019 13:00:00 22,3 15,4 0 0 0 0 N 1028,2 0,0
13.09.2019 12:00:00 18,9 15,0 0 0 0 0 N 1029,3 0,0
13.09.2019 11:00:00 15,4 14,8 0 0 5 3 N 1029,4 0,0
13.09.2019 10:00:00 12,7 12,1 2 1 10 6 S 1030,2 0,0
13.09.2019 09:00:00 11,8 11,2 0 0 0 0 N 1030,3 0,0
13.09.2019 08:00:00 11,5 10,9 0 0 0 0 N 1030,4 -
13.09.2019 07:00:00 11,4 10,8 0 0 7 4 N 1030,1 0,0
13.09.2019 06:00:00 11,2 10,4 2 1 9 5 S 1030,3 0,0
13.09.2019 05:00:00 11,2 10,4 0 0 0 0 N 1030,3 0,0
13.09.2019 04:00:00 11,4 10,4 0 0 0 0 N 1030,6 0,0
13.09.2019 03:00:00 12,1 11,1 0 0 4 2 N 1030,7 0,0
13.09.2019 02:00:00 12,3 11,2 0 0 0 0 N 1030,5 -
13.09.2019 01:00:00 12,7 11,4 0 0 0 0 N 1030,8 0,0
13.09.2019 00:00:00 13,4 11,8 0 0 0 0 N 1030,9 0,0
12.09.2019 23:00:00 14,0 11,9 0 0 6 3 N 1030,9 0,0
12.09.2019 22:00:00 14,9 11,9 0 0 6 3 N 1030,7 0,0
12.09.2019 21:00:00 16,2 11,6 2 1 13 7 E 1030,5 0,0
12.09.2019 20:00:00 17,7 11,4 6 3 16 9 NNE 1029,9 -
12.09.2019 19:00:00 19,0 12,2 10 5 16 9 NNW 1029,6 0,0
12.09.2019 18:00:00 19,3 12,3 9 5 19 11 N 1029,4 0,0
12.09.2019 17:00:00 19,2 11,8 10 6 21 12 N 1029,5 0,0
12.09.2019 16:00:00 19,7 11,4 11 6 23 13 NNW 1030,0 0,0
12.09.2019 15:00:00 20,1 12,1 10 6 21 11 N 1030,5 0,0
12.09.2019 14:00:00 20,2 12,6 9 5 18 10 N 1030,9 -
12.09.2019 13:00:00 19,5 12,5 9 5 18 10 N 1031,5 0,0
12.09.2019 12:00:00 19,1 13,1 8 4 19 11 N 1031,6 0,0
12.09.2019 11:00:00 16,9 14,9 0 0 0 0 N 1031,8 0,0
12.09.2019 10:00:00 13,6 12,8 0 0 9 5 N 1031,9 0,0
12.09.2019 09:00:00 12,7 11,9 0 0 0 0 N 1031,7 0,0
12.09.2019 08:00:00 11,5 10,8 0 0 0 0 N 1031,3 -
12.09.2019 07:00:00 11,9 11,0 1 0 7 4 SSW 1030,5 0,0
12.09.2019 06:00:00 12,5 11,4 0 0 8 4 N 1030,8 0,0
12.09.2019 05:00:00 13,3 12,2 0 0 5 3 SSW 1030,6 0,0
12.09.2019 04:00:00 13,5 12,2 0 0 8 4 N 1030,3 0,0
12.09.2019 03:00:00 14,3 13,1 1 0 6 3 SW 1030,7 0,0
12.09.2019 02:00:00 14,4 12,7 0 0 0 0 N 1030,8 -
12.09.2019 01:00:00 14,6 12,8 0 0 1 0 N 1030,8 0,0
12.09.2019 00:00:00 15,1 13,0 3 1 5 3 WSW 1030,8 0,0
11.09.2019 23:00:00 15,1 12,6 1 1 8 4 E 1030,6 0,0
11.09.2019 22:00:00 15,7 12,4 0 0 0 0 N 1030,1 0,0
11.09.2019 21:00:00 16,5 12,0 0 0 9 5 N 1029,3 0,0
11.09.2019 20:00:00 17,7 11,9 4 2 15 8 N 1028,5 -
11.09.2019 19:00:00 18,2 11,6 10 5 21 11 NNE 1028,4 0,0
11.09.2019 18:00:00 18,7 11,6 12 7 25 13 N 1028,3 0,0
11.09.2019 17:00:00 19,8 11,8 12 6 24 13 NNE 1027,9 0,0
11.09.2019 16:00:00 19,7 11,2 12 6 25 13 NNE 1027,6 0,0
11.09.2019 15:00:00 20,2 11,1 11 6 26 14 NNE 1027,6 0,0
11.09.2019 14:00:00 20,2 11,9 11 6 26 14 NNE 1027,7 -
11.09.2019 13:00:00 19,6 13,3 13 7 23 13 NNE 1027,8 0,0
11.09.2019 12:00:00 19,1 13,3 10 6 28 15 NNE 1027,5 0,0
11.09.2019 11:00:00 19,3 13,7 11 6 31 17 N 1026,5 0,0
11.09.2019 10:00:00 18,2 13,9 9 5 18 10 N 1026,3 0,0
11.09.2019 09:00:00 17,1 13,1 1 0 12 6 ESE 1026,0 0,0
11.09.2019 08:00:00 17,2 13,2 3 1 19 10 NW 1025,3 -
11.09.2019 07:00:00 17,4 13,0 5 3 19 10 NW 1024,2 0,0
11.09.2019 06:00:00 17,4 13,0 9 5 26 14 NNW 1023,6 0,0
11.09.2019 05:00:00 17,2 12,7 7 4 29 16 NNW 1023,4 0,0
11.09.2019 04:00:00 17,3 13,1 8 4 27 15 NNW 1023,1 0,0
11.09.2019 03:00:00 17,2 13,2 13 7 28 15 NNW 1022,9 0,0
11.09.2019 02:00:00 16,8 13,4 8 4 23 12 NNW 1022,9 -
11.09.2019 01:00:00 15,4 12,7 1 1 14 7 S 1022,9 0,6
11.09.2019 00:00:00 15,2 11,2 2 1 10 5 SE 1022,7 0,0
10.09.2019 23:00:00 15,7 10,6 4 2 13 7 W 1022,6 0,0
10.09.2019 22:00:00 15,6 10,8 4 2 11 6 WNW 1021,9 0,0
10.09.2019 21:00:00 15,7 10,6 3 1 13 7 WNW 1021,0 0,0
10.09.2019 20:00:00 16,1 10,2 4 2 17 9 NNW 1019,8 -
10.09.2019 19:00:00 16,4 10,3 8 4 24 13 NNW 1019,3 0,0
10.09.2019 18:00:00 16,6 10,6 5 3 29 16 N 1018,3 0,0
10.09.2019 17:00:00 16,6 11,1 10 5 32 17 N 1017,5 0,0
10.09.2019 16:00:00 16,8 11,7 10 5 26 14 N 1016,2 0,0
10.09.2019 15:00:00 16,2 12,0 8 4 28 15 WNW 1016,3 0,1
10.09.2019 14:00:00 16,0 12,5 3 1 11 6 W 1015,5 -
10.09.2019 13:00:00 14,3 11,2 5 3 26 14 W 1016,1 1,4
10.09.2019 12:00:00 14,2 11,3 11 6 28 15 SW 1015,5 0,0
10.09.2019 11:00:00 - - - - - - - - -
10.09.2019 10:00:00 - - - - - - - - -
10.09.2019 09:00:00 - - - - - - - - -
10.09.2019 08:00:00 - - - - - - - - -
10.09.2019 07:00:00 - - - - - - - - -
10.09.2019 06:00:00 - - - - - - - - -
10.09.2019 05:00:00 - - - - - - - - -

tt = temperature
td = dewpoint
ff = wind speed
fx = gusts
dd = wind direction
ppp = reduced air pressure
rr = precipitation

Next stations